sensor_id;sensor_type;location;lat;lon;timestamp;P1;P2;P0
24012;PMS7003;12220;50.194;18.948;2023-03-01T00:01:27;66;52;32
24012;PMS7003;12220;50.194;18.948;2023-03-01T00:03:30;60;47;29
24012;PMS7003;12220;50.194;18.948;2023-03-01T00:05:32;55;43;23
24012;PMS7003;12220;50.194;18.948;2023-03-01T00:07:34;60;48;29
24012;PMS7003;12220;50.194;18.948;2023-03-01T00:09:41;63;48;29
24012;PMS7003;12220;50.194;18.948;2023-03-01T00:11:43;52;41;25
24012;PMS7003;12220;50.194;18.948;2023-03-01T00:13:45;59;45;27
24012;PMS7003;12220;50.194;18.948;2023-03-01T00:15:48;69;52;33
24012;PMS7003;12220;50.194;18.948;2023-03-01T00:17:56;61;48;30
24012;PMS7003;12220;50.194;18.948;2023-03-01T00:19:58;58;45;30
24012;PMS7003;12220;50.194;18.948;2023-03-01T00:21:59;66;51;32
24012;PMS7003;12220;50.194;18.948;2023-03-01T00:24:01;59;46;26
24012;PMS7003;12220;50.194;18.948;2023-03-01T00:26:13;57;44;27
24012;PMS7003;12220;50.194;18.948;2023-03-01T00:28:15;61;47;30
24012;PMS7003;12220;50.194;18.948;2023-03-01T00:30:17;64;50;30
24012;PMS7003;12220;50.194;18.948;2023-03-01T00:32:19;63;48;30
24012;PMS7003;12220;50.194;18.948;2023-03-01T00:34:27;59;48;29
24012;PMS7003;12220;50.194;18.948;2023-03-01T00:36:31;65;49;32
24012;PMS7003;12220;50.194;18.948;2023-03-01T00:38:36;56;42;27
24012;PMS7003;12220;50.194;18.948;2023-03-01T00:40:38;55;41;27
24012;PMS7003;12220;50.194;18.948;2023-03-01T00:42:45;53;42;27
24012;PMS7003;12220;50.194;18.948;2023-03-01T00:44:46;57;43;28
24012;PMS7003;12220;50.194;18.948;2023-03-01T00:46:48;55;44;27
24012;PMS7003;12220;50.194;18.948;2023-03-01T00:48:49;56;46;29
24012;PMS7003;12220;50.194;18.948;2023-03-01T00:51:20;47;40;26
24012;PMS7003;12220;50.194;18.948;2023-03-01T00:53:20;56;44;27
24012;PMS7003;12220;50.194;18.948;2023-03-01T00:55:21;54;38;24
24012;PMS7003;12220;50.194;18.948;2023-03-01T00:57:23;53;42;27
24012;PMS7003;12220;50.194;18.948;2023-03-01T00:59:25;56;43;26
24012;PMS7003;12220;50.194;18.948;2023-03-01T01:01:35;62;43;27
24012;PMS7003;12220;50.194;18.948;2023-03-01T01:03:37;60;47;26
24012;PMS7003;12220;50.194;18.948;2023-03-01T01:05:38;60;45;29
24012;PMS7003;12220;50.194;18.948;2023-03-01T01:07:40;62;46;29
24012;PMS7003;12220;50.194;18.948;2023-03-01T01:12:22;57;46;29
24012;PMS7003;12220;50.194;18.948;2023-03-01T01:14:33;62;47;29
24012;PMS7003;12220;50.194;18.948;2023-03-01T01:16:35;62;45;28
24012;PMS7003;12220;50.194;18.948;2023-03-01T01:18:37;63;46;28
24012;PMS7003;12220;50.194;18.948;2023-03-01T01:20:38;67;53;31
24012;PMS7003;12220;50.194;18.948;2023-03-01T01:22:48;56;47;30
24012;PMS7003;12220;50.194;18.948;2023-03-01T01:24:51;62;47;29
24012;PMS7003;12220;50.194;18.948;2023-03-01T01:26:53;56;44;27
24012;PMS7003;12220;50.194;18.948;2023-03-01T01:28:54;67;45;28
24012;PMS7003;12220;50.194;18.948;2023-03-01T01:31:04;53;41;27
24012;PMS7003;12220;50.194;18.948;2023-03-01T01:33:06;55;43;24
24012;PMS7003;12220;50.194;18.948;2023-03-01T01:35:08;67;50;31
24012;PMS7003;12220;50.194;18.948;2023-03-01T01:37:09;66;49;31
24012;PMS7003;12220;50.194;18.948;2023-03-01T01:39:20;65;50;31
24012;PMS7003;12220;50.194;18.948;2023-03-01T01:41:22;63;47;31
24012;PMS7003;12220;50.194;18.948;2023-03-01T01:43:29;64;49;30
24012;PMS7003;12220;50.194;18.948;2023-03-01T01:45:34;67;49;31
24012;PMS7003;12220;50.194;18.948;2023-03-01T01:47:39;63;48;29
24012;PMS7003;12220;50.194;18.948;2023-03-01T01:49:44;57;43;28
24012;PMS7003;12220;50.194;18.948;2023-03-01T01:51:49;67;46;30
24012;PMS7003;12220;50.194;18.948;2023-03-01T01:53:58;61;46;28
24012;PMS7003;12220;50.194;18.948;2023-03-01T01:56:05;62;46;28
24012;PMS7003;12220;50.194;18.948;2023-03-01T01:58:17;54;44;29
24012;PMS7003;12220;50.194;18.948;2023-03-01T02:00:22;53;42;27
24012;PMS7003;12220;50.194;18.948;2023-03-01T02:02:26;57;44;27
24012;PMS7003;12220;50.194;18.948;2023-03-01T02:04:28;59;43;27
24012;PMS7003;12220;50.194;18.948;2023-03-01T02:06:32;63;48;29
24012;PMS7003;12220;50.194;18.948;2023-03-01T02:08:38;62;45;29
24012;PMS7003;12220;50.194;18.948;2023-03-01T02:10:43;62;45;29
24012;PMS7003;12220;50.194;18.948;2023-03-01T02:16:45;57;46;28
24012;PMS7003;12220;50.194;18.948;2023-03-01T02:18:47;65;47;29
24012;PMS7003;12220;50.194;18.948;2023-03-01T02:23:03;54;41;27
24012;PMS7003;12220;50.194;18.948;2023-03-01T02:27:22;57;44;26
24012;PMS7003;12220;50.194;18.948;2023-03-01T02:29:32;54;41;26
24012;PMS7003;12220;50.194;18.948;2023-03-01T02:31:33;56;44;27
24012;PMS7003;12220;50.194;18.948;2023-03-01T02:33:45;54;42;27
24012;PMS7003;12220;50.194;18.948;2023-03-01T02:35:49;58;41;27
24012;PMS7003;12220;50.194;18.948;2023-03-01T02:38:00;54;42;28
24012;PMS7003;12220;50.194;18.948;2023-03-01T02:40:04;57;42;26
24012;PMS7003;12220;50.194;18.948;2023-03-01T02:42:17;64;45;28
24012;PMS7003;12220;50.194;18.948;2023-03-01T02:44:23;57;45;29
24012;PMS7003;12220;50.194;18.948;2023-03-01T02:46:25;62;44;25
24012;PMS7003;12220;50.194;18.948;2023-03-01T02:48:27;53;41;28
24012;PMS7003;12220;50.194;18.948;2023-03-01T02:54:56;54;43;28
24012;PMS7003;12220;50.194;18.948;2023-03-01T02:57:01;63;47;29
24012;PMS7003;12220;50.194;18.948;2023-03-01T02:59:03;63;49;28
24012;PMS7003;12220;50.194;18.948;2023-03-01T03:01:05;59;46;30
24012;PMS7003;12220;50.194;18.948;2023-03-01T03:03:09;54;43;28
24012;PMS7003;12220;50.194;18.948;2023-03-01T03:05:21;54;44;26
24012;PMS7003;12220;50.194;18.948;2023-03-01T03:07:35;62;46;29
24012;PMS7003;12220;50.194;18.948;2023-03-01T03:09:38;63;47;28
24012;PMS7003;12220;50.194;18.948;2023-03-01T03:11:40;55;44;29
24012;PMS7003;12220;50.194;18.948;2023-03-01T03:13:43;53;42;26
24012;PMS7003;12220;50.194;18.948;2023-03-01T03:15:50;59;46;28
24012;PMS7003;12220;50.194;18.948;2023-03-01T03:17:52;59;43;24
24012;PMS7003;12220;50.194;18.948;2023-03-01T03:19:54;62;45;28
24012;PMS7003;12220;50.194;18.948;2023-03-01T03:21:56;64;45;31
24012;PMS7003;12220;50.194;18.948;2023-03-01T03:24:05;64;46;27
24012;PMS7003;12220;50.194;18.948;2023-03-01T03:26:06;58;47;30
24012;PMS7003;12220;50.194;18.948;2023-03-01T03:28:08;65;49;31
24012;PMS7003;12220;50.194;18.948;2023-03-01T03:30:11;68;51;31
24012;PMS7003;12220;50.194;18.948;2023-03-01T03:32:21;61;49;30
24012;PMS7003;12220;50.194;18.948;2023-03-01T03:34:23;64;48;31
24012;PMS7003;12220;50.194;18.948;2023-03-01T03:36:24;72;55;33
24012;PMS7003;12220;50.194;18.948;2023-03-01T03:38:26;74;55;34
24012;PMS7003;12220;50.194;18.948;2023-03-01T03:40:38;76;57;33
24012;PMS7003;12220;50.194;18.948;2023-03-01T03:42:41;61;48;30
24012;PMS7003;12220;50.194;18.948;2023-03-01T03:44:42;68;50;30
24012;PMS7003;12220;50.194;18.948;2023-03-01T03:46:44;62;50;30
24012;PMS7003;12220;50.194;18.948;2023-03-01T03:48:52;64;49;30
24012;PMS7003;12220;50.194;18.948;2023-03-01T03:53:32;54;42;27
24012;PMS7003;12220;50.194;18.948;2023-03-01T03:55:34;57;45;26
24012;PMS7003;12220;50.194;18.948;2023-03-01T03:57:47;56;41;24
24012;PMS7003;12220;50.194;18.948;2023-03-01T03:59:54;51;43;25
24012;PMS7003;12220;50.194;18.948;2023-03-01T04:01:56;62;46;28
24012;PMS7003;12220;50.194;18.948;2023-03-01T04:03:57;58;43;29
24012;PMS7003;12220;50.194;18.948;2023-03-01T04:06:04;68;47;29
24012;PMS7003;12220;50.194;18.948;2023-03-01T04:08:07;70;51;30
24012;PMS7003;12220;50.194;18.948;2023-03-01T04:10:10;61;48;30
24012;PMS7003;12220;50.194;18.948;2023-03-01T04:12:14;63;50;29
24012;PMS7003;12220;50.194;18.948;2023-03-01T04:14:23;58;48;29
24012;PMS7003;12220;50.194;18.948;2023-03-01T04:16:25;63;49;32
24012;PMS7003;12220;50.194;18.948;2023-03-01T04:18:27;51;41;26
24012;PMS7003;12220;50.194;18.948;2023-03-01T04:20:30;51;41;24
24012;PMS7003;12220;50.194;18.948;2023-03-01T04:22:36;58;45;28
24012;PMS7003;12220;50.194;18.948;2023-03-01T04:24:38;52;44;26
24012;PMS7003;12220;50.194;18.948;2023-03-01T04:26:39;60;47;28
24012;PMS7003;12220;50.194;18.948;2023-03-01T04:28:41;66;47;28
24012;PMS7003;12220;50.194;18.948;2023-03-01T04:30:49;60;47;28
24012;PMS7003;12220;50.194;18.948;2023-03-01T04:32:51;61;44;29
24012;PMS7003;12220;50.194;18.948;2023-03-01T04:34:53;65;51;32
24012;PMS7003;12220;50.194;18.948;2023-03-01T04:36:55;72;52;31
24012;PMS7003;12220;50.194;18.948;2023-03-01T04:39:05;71;51;30
24012;PMS7003;12220;50.194;18.948;2023-03-01T04:41:16;67;50;31
24012;PMS7003;12220;50.194;18.948;2023-03-01T04:43:18;65;51;30
24012;PMS7003;12220;50.194;18.948;2023-03-01T04:45:20;64;47;28
24012;PMS7003;12220;50.194;18.948;2023-03-01T04:47:23;70;53;31
24012;PMS7003;12220;50.194;18.948;2023-03-01T04:49:25;67;51;32
24012;PMS7003;12220;50.194;18.948;2023-03-01T04:51:26;59;46;29
24012;PMS7003;12220;50.194;18.948;2023-03-01T04:53:28;62;45;27
24012;PMS7003;12220;50.194;18.948;2023-03-01T04:55:39;64;50;29
24012;PMS7003;12220;50.194;18.948;2023-03-01T04:57:40;64;50;31
24012;PMS7003;12220;50.194;18.948;2023-03-01T04:59:42;63;47;29
24012;PMS7003;12220;50.194;18.948;2023-03-01T05:01:44;62;46;29
24012;PMS7003;12220;50.194;18.948;2023-03-01T05:03:54;69;49;28
24012;PMS7003;12220;50.194;18.948;2023-03-01T05:05:58;60;45;28
24012;PMS7003;12220;50.194;18.948;2023-03-01T05:08:01;64;47;30
24012;PMS7003;12220;50.194;18.948;2023-03-01T05:10:05;62;48;28
24012;PMS7003;12220;50.194;18.948;2023-03-01T05:12:09;61;44;29
24012;PMS7003;12220;50.194;18.948;2023-03-01T05:14:11;63;48;29
24012;PMS7003;12220;50.194;18.948;2023-03-01T05:16:13;60;46;29
24012;PMS7003;12220;50.194;18.948;2023-03-01T05:18:14;51;39;28
24012;PMS7003;12220;50.194;18.948;2023-03-01T05:20:26;62;45;28
24012;PMS7003;12220;50.194;18.948;2023-03-01T05:22:29;56;42;25
24012;PMS7003;12220;50.194;18.948;2023-03-01T05:24:31;55;44;27
24012;PMS7003;12220;50.194;18.948;2023-03-01T05:26:34;52;42;23
24012;PMS7003;12220;50.194;18.948;2023-03-01T05:28:41;47;36;22
24012;PMS7003;12220;50.194;18.948;2023-03-01T05:30:42;47;38;22
24012;PMS7003;12220;50.194;18.948;2023-03-01T05:32:45;57;43;26
24012;PMS7003;12220;50.194;18.948;2023-03-01T05:34:48;52;43;27
24012;PMS7003;12220;50.194;18.948;2023-03-01T05:36:57;54;44;26
24012;PMS7003;12220;50.194;18.948;2023-03-01T05:38:59;53;40;25
24012;PMS7003;12220;50.194;18.948;2023-03-01T05:41:01;56;40;26
24012;PMS7003;12220;50.194;18.948;2023-03-01T05:43:02;53;40;24
24012;PMS7003;12220;50.194;18.948;2023-03-01T05:45:12;58;41;23
24012;PMS7003;12220;50.194;18.948;2023-03-01T05:47:15;48;39;23
24012;PMS7003;12220;50.194;18.948;2023-03-01T05:49:17;51;37;23
24012;PMS7003;12220;50.194;18.948;2023-03-01T05:51:24;54;41;26
24012;PMS7003;12220;50.194;18.948;2023-03-01T05:53:27;53;38;25
24012;PMS7003;12220;50.194;18.948;2023-03-01T05:55:29;53;39;24
24012;PMS7003;12220;50.194;18.948;2023-03-01T05:57:31;54;43;26
24012;PMS7003;12220;50.194;18.948;2023-03-01T05:59:33;54;40;25
24012;PMS7003;12220;50.194;18.948;2023-03-01T06:01:42;56;45;26
24012;PMS7003;12220;50.194;18.948;2023-03-01T06:03:44;50;39;25
24012;PMS7003;12220;50.194;18.948;2023-03-01T06:05:45;54;44;27
24012;PMS7003;12220;50.194;18.948;2023-03-01T06:07:47;54;44;27
24012;PMS7003;12220;50.194;18.948;2023-03-01T06:09:57;60;45;28
24012;PMS7003;12220;50.194;18.948;2023-03-01T06:11:59;53;42;26
24012;PMS7003;12220;50.194;18.948;2023-03-01T06:14:00;58;44;26
24012;PMS7003;12220;50.194;18.948;2023-03-01T06:16:04;59;45;28
24012;PMS7003;12220;50.194;18.948;2023-03-01T06:18:13;62;46;28
24012;PMS7003;12220;50.194;18.948;2023-03-01T06:20:18;60;44;27
24012;PMS7003;12220;50.194;18.948;2023-03-01T06:22:21;56;45;25
24012;PMS7003;12220;50.194;18.948;2023-03-01T06:24:23;58;43;27
24012;PMS7003;12220;50.194;18.948;2023-03-01T06:26:28;62;49;29
24012;PMS7003;12220;50.194;18.948;2023-03-01T06:28:29;63;48;29
24012;PMS7003;12220;50.194;18.948;2023-03-01T06:30:31;51;41;25
24012;PMS7003;12220;50.194;18.948;2023-03-01T06:32:33;62;46;28
24012;PMS7003;12220;50.194;18.948;2023-03-01T06:34:43;45;39;23
24012;PMS7003;12220;50.194;18.948;2023-03-01T06:36:46;59;45;28
24012;PMS7003;12220;50.194;18.948;2023-03-01T06:38:47;58;44;26
24012;PMS7003;12220;50.194;18.948;2023-03-01T06:40:52;64;48;27
24012;PMS7003;12220;50.194;18.948;2023-03-01T06:42:58;59;46;28
24012;PMS7003;12220;50.194;18.948;2023-03-01T06:45:02;65;48;28
24012;PMS7003;12220;50.194;18.948;2023-03-01T06:47:04;63;46;29
24012;PMS7003;12220;50.194;18.948;2023-03-01T06:49:06;60;46;29
24012;PMS7003;12220;50.194;18.948;2023-03-01T06:51:14;59;45;28
24012;PMS7003;12220;50.194;18.948;2023-03-01T06:53:15;59;45;30
24012;PMS7003;12220;50.194;18.948;2023-03-01T06:55:20;63;42;22
24012;PMS7003;12220;50.194;18.948;2023-03-01T06:57:21;58;44;27
24012;PMS7003;12220;50.194;18.948;2023-03-01T06:59:29;67;50;28
24012;PMS7003;12220;50.194;18.948;2023-03-01T07:01:34;58;47;28
24012;PMS7003;12220;50.194;18.948;2023-03-01T07:03:35;57;45;29
24012;PMS7003;12220;50.194;18.948;2023-03-01T07:05:38;61;45;30
24012;PMS7003;12220;50.194;18.948;2023-03-01T07:07:44;60;43;28
24012;PMS7003;12220;50.194;18.948;2023-03-01T07:09:46;61;47;29
24012;PMS7003;12220;50.194;18.948;2023-03-01T07:11:49;63;49;30
24012;PMS7003;12220;50.194;18.948;2023-03-01T07:13:51;69;50;31
24012;PMS7003;12220;50.194;18.948;2023-03-01T07:16:00;62;48;28
24012;PMS7003;12220;50.194;18.948;2023-03-01T07:18:01;59;45;31
24012;PMS7003;12220;50.194;18.948;2023-03-01T07:20:03;55;46;30
24012;PMS7003;12220;50.194;18.948;2023-03-01T07:22:05;75;52;31
24012;PMS7003;12220;50.194;18.948;2023-03-01T07:24:15;60;46;31
24012;PMS7003;12220;50.194;18.948;2023-03-01T07:26:16;68;51;30
24012;PMS7003;12220;50.194;18.948;2023-03-01T07:28:18;71;52;32
24012;PMS7003;12220;50.194;18.948;2023-03-01T07:30:20;71;55;33
24012;PMS7003;12220;50.194;18.948;2023-03-01T07:32:30;69;52;33
24012;PMS7003;12220;50.194;18.948;2023-03-01T07:34:32;70;53;34
24012;PMS7003;12220;50.194;18.948;2023-03-01T07:36:33;75;56;34
24012;PMS7003;12220;50.194;18.948;2023-03-01T07:38:35;72;58;34
24012;PMS7003;12220;50.194;18.948;2023-03-01T07:40:46;62;47;31
24012;PMS7003;12220;50.194;18.948;2023-03-01T07:42:47;66;49;30
24012;PMS7003;12220;50.194;18.948;2023-03-01T07:44:49;64;47;30
24012;PMS7003;12220;50.194;18.948;2023-03-01T07:46:50;63;49;31
24012;PMS7003;12220;50.194;18.948;2023-03-01T07:49:01;59;46;29
24012;PMS7003;12220;50.194;18.948;2023-03-01T07:51:03;63;46;27
24012;PMS7003;12220;50.194;18.948;2023-03-01T07:53:07;56;43;27
24012;PMS7003;12220;50.194;18.948;2023-03-01T07:55:09;50;39;23
24012;PMS7003;12220;50.194;18.948;2023-03-01T07:57:16;53;41;26
24012;PMS7003;12220;50.194;18.948;2023-03-01T07:59:18;51;40;25
24012;PMS7003;12220;50.194;18.948;2023-03-01T08:01:20;48;37;25
24012;PMS7003;12220;50.194;18.948;2023-03-01T08:03:22;51;41;28
24012;PMS7003;12220;50.194;18.948;2023-03-01T08:05:31;52;39;24
24012;PMS7003;12220;50.194;18.948;2023-03-01T08:07:33;49;39;24
24012;PMS7003;12220;50.194;18.948;2023-03-01T08:09:35;50;42;24
24012;PMS7003;12220;50.194;18.948;2023-03-01T08:11:38;49;40;26
24012;PMS7003;12220;50.194;18.948;2023-03-01T08:13:47;47;36;23
24012;PMS7003;12220;50.194;18.948;2023-03-01T08:15:49;53;42;25
24012;PMS7003;12220;50.194;18.948;2023-03-01T08:17:51;55;40;26
24012;PMS7003;12220;50.194;18.948;2023-03-01T08:19:52;56;43;28
24012;PMS7003;12220;50.194;18.948;2023-03-01T08:22:02;55;43;26
24012;PMS7003;12220;50.194;18.948;2023-03-01T08:24:04;56;45;28
24012;PMS7003;12220;50.194;18.948;2023-03-01T08:26:11;57;41;24
24012;PMS7003;12220;50.194;18.948;2023-03-01T08:28:19;50;40;25
24012;PMS7003;12220;50.194;18.948;2023-03-01T08:30:20;49;40;25
24012;PMS7003;12220;50.194;18.948;2023-03-01T08:32:24;48;40;26
24012;PMS7003;12220;50.194;18.948;2023-03-01T08:34:26;49;41;26
24012;PMS7003;12220;50.194;18.948;2023-03-01T08:36:31;50;37;22
24012;PMS7003;12220;50.194;18.948;2023-03-01T08:38:36;45;38;22
24012;PMS7003;12220;50.194;18.948;2023-03-01T08:40:37;43;33;22
24012;PMS7003;12220;50.194;18.948;2023-03-01T08:42:40;31;30;19
24012;PMS7003;12220;50.194;18.948;2023-03-01T08:44:43;49;41;24
24012;PMS7003;12220;50.194;18.948;2023-03-01T08:46:48;47;34;23
24012;PMS7003;12220;50.194;18.948;2023-03-01T08:48:51;40;31;21
24012;PMS7003;12220;50.194;18.948;2023-03-01T08:50:54;50;41;26
24012;PMS7003;12220;50.194;18.948;2023-03-01T08:52:55;48;36;22
24012;PMS7003;12220;50.194;18.948;2023-03-01T08:55:03;51;38;23
24012;PMS7003;12220;50.194;18.948;2023-03-01T08:57:05;45;35;22
24012;PMS7003;12220;50.194;18.948;2023-03-01T08:59:07;38;34;23
24012;PMS7003;12220;50.194;18.948;2023-03-01T09:01:09;43;32;20
24012;PMS7003;12220;50.194;18.948;2023-03-01T09:03:18;43;31;18
24012;PMS7003;12220;50.194;18.948;2023-03-01T09:05:19;51;39;27
24012;PMS7003;12220;50.194;18.948;2023-03-01T09:07:21;50;39;26
24012;PMS7003;12220;50.194;18.948;2023-03-01T09:09:30;48;37;25
24012;PMS7003;12220;50.194;18.948;2023-03-01T09:11:33;47;40;25
24012;PMS7003;12220;50.194;18.948;2023-03-01T09:13:35;43;37;25
24012;PMS7003;12220;50.194;18.948;2023-03-01T09:15:37;41;33;20
24012;PMS7003;12220;50.194;18.948;2023-03-01T09:17:40;40;30;19
24012;PMS7003;12220;50.194;18.948;2023-03-01T09:19:48;33;30;18
24012;PMS7003;12220;50.194;18.948;2023-03-01T09:21:50;32;30;20
24012;PMS7003;12220;50.194;18.948;2023-03-01T09:23:57;34;29;19
24012;PMS7003;12220;50.194;18.948;2023-03-01T09:31:27;37;32;20
24012;PMS7003;12220;50.194;18.948;2023-03-01T09:33:30;31;29;20
24012;PMS7003;12220;50.194;18.948;2023-03-01T09:35:41;34;30;18
24012;PMS7003;12220;50.194;18.948;2023-03-01T09:37:48;33;30;20
24012;PMS7003;12220;50.194;18.948;2023-03-01T09:39:50;38;32;20
24012;PMS7003;12220;50.194;18.948;2023-03-01T09:46:21;39;31;20
24012;PMS7003;12220;50.194;18.948;2023-03-01T09:48:26;42;33;20
24012;PMS7003;12220;50.194;18.948;2023-03-01T09:50:34;32;28;17
24012;PMS7003;12220;50.194;18.948;2023-03-01T09:52:43;31;28;19
24012;PMS7003;12220;50.194;18.948;2023-03-01T09:54:52;35;30;20
24012;PMS7003;12220;50.194;18.948;2023-03-01T09:59:37;46;36;20
24012;PMS7003;12220;50.194;18.948;2023-03-01T10:04:06;50;37;23
24012;PMS7003;12220;50.194;18.948;2023-03-01T10:06:22;46;34;23
24012;PMS7003;12220;50.194;18.948;2023-03-01T10:10:46;35;32;22
24012;PMS7003;12220;50.194;18.948;2023-03-01T10:12:49;43;36;23
24012;PMS7003;12220;50.194;18.948;2023-03-01T10:14:57;41;35;23
24012;PMS7003;12220;50.194;18.948;2023-03-01T10:17:31;37;32;21
24012;PMS7003;12220;50.194;18.948;2023-03-01T10:19:31;32;30;19
24012;PMS7003;12220;50.194;18.948;2023-03-01T10:21:39;34;29;21
24012;PMS7003;12220;50.194;18.948;2023-03-01T10:23:46;40;31;20
24012;PMS7003;12220;50.194;18.948;2023-03-01T10:28:15;40;31;22
24012;PMS7003;12220;50.194;18.948;2023-03-01T10:30:28;43;36;23
24012;PMS7003;12220;50.194;18.948;2023-03-01T10:32:34;42;34;23
24012;PMS7003;12220;50.194;18.948;2023-03-01T10:34:36;42;34;23
24012;PMS7003;12220;50.194;18.948;2023-03-01T10:36:38;40;33;22
24012;PMS7003;12220;50.194;18.948;2023-03-01T10:40:58;41;33;22
24012;PMS7003;12220;50.194;18.948;2023-03-01T10:43:11;35;31;19
24012;PMS7003;12220;50.194;18.948;2023-03-01T10:47:26;49;35;21
24012;PMS7003;12220;50.194;18.948;2023-03-01T10:49:30;46;38;23
24012;PMS7003;12220;50.194;18.948;2023-03-01T10:51:32;40;33;23
24012;PMS7003;12220;50.194;18.948;2023-03-01T10:55:43;46;38;25
24012;PMS7003;12220;50.194;18.948;2023-03-01T10:57:44;51;39;25
24012;PMS7003;12220;50.194;18.948;2023-03-01T10:59:48;51;42;27
24012;PMS7003;12220;50.194;18.948;2023-03-01T11:02:15;46;36;23
24012;PMS7003;12220;50.194;18.948;2023-03-01T11:04:18;45;35;22
24012;PMS7003;12220;50.194;18.948;2023-03-01T11:06:20;49;38;24
24012;PMS7003;12220;50.194;18.948;2023-03-01T11:10:33;46;33;22
24012;PMS7003;12220;50.194;18.948;2023-03-01T11:12:46;44;37;25
24012;PMS7003;12220;50.194;18.948;2023-03-01T11:14:51;33;31;20
24012;PMS7003;12220;50.194;18.948;2023-03-01T11:16:59;45;35;24
24012;PMS7003;12220;50.194;18.948;2023-03-01T11:21:20;43;32;19
24012;PMS7003;12220;50.194;18.948;2023-03-01T11:26:31;39;33;22
24012;PMS7003;12220;50.194;18.948;2023-03-01T11:30:48;40;33;22
24012;PMS7003;12220;50.194;18.948;2023-03-01T11:35:15;46;38;25
24012;PMS7003;12220;50.194;18.948;2023-03-01T11:45:05;34;31;22
24012;PMS7003;12220;50.194;18.948;2023-03-01T12:36:31;35;31;19
24012;PMS7003;12220;50.194;18.948;2023-03-01T12:38:49;37;33;21
24012;PMS7003;12220;50.194;18.948;2023-03-01T12:45:30;42;32;16
24012;PMS7003;12220;50.194;18.948;2023-03-01T12:49:53;29;27;15
24012;PMS7003;12220;50.194;18.948;2023-03-01T12:51:59;25;21;17
24012;PMS7003;12220;50.194;18.948;2023-03-01T12:54:12;26;24;13
24012;PMS7003;12220;50.194;18.948;2023-03-01T12:56:25;26;23;15
24012;PMS7003;12220;50.194;18.948;2023-03-01T13:07:52;34;28;21
24012;PMS7003;12220;50.194;18.948;2023-03-01T13:09:59;31;28;20
24012;PMS7003;12220;50.194;18.948;2023-03-01T13:14:35;28;24;14
24012;PMS7003;12220;50.194;18.948;2023-03-01T13:16:39;35;27;20
24012;PMS7003;12220;50.194;18.948;2023-03-01T13:18:56;26;24;20
24012;PMS7003;12220;50.194;18.948;2023-03-01T13:21:04;36;28;20
24012;PMS7003;12220;50.194;18.948;2023-03-01T13:23:26;25;24;16
24012;PMS7003;12220;50.194;18.948;2023-03-01T13:27:39;31;25;18
24012;PMS7003;12220;50.194;18.948;2023-03-01T13:29:45;28;23;14
24012;PMS7003;12220;50.194;18.948;2023-03-01T13:33:57;22;20;11
24012;PMS7003;12220;50.194;18.948;2023-03-01T13:36:00;22;18;14
24012;PMS7003;12220;50.194;18.948;2023-03-01T13:38:36;30;29;18
24012;PMS7003;12220;50.194;18.948;2023-03-01T13:47:22;14;14;10
24012;PMS7003;12220;50.194;18.948;2023-03-01T13:49:25;17;16;12
24012;PMS7003;12220;50.194;18.948;2023-03-01T13:51:34;26;21;13
24012;PMS7003;12220;50.194;18.948;2023-03-01T13:53:43;25;24;18
24012;PMS7003;12220;50.194;18.948;2023-03-01T13:55:48;33;28;20
24012;PMS7003;12220;50.194;18.948;2023-03-01T13:57:57;25;22;13
24012;PMS7003;12220;50.194;18.948;2023-03-01T14:00:01;22;20;14
24012;PMS7003;12220;50.194;18.948;2023-03-01T14:02:13;28;23;16
24012;PMS7003;12220;50.194;18.948;2023-03-01T14:06:28;26;25;18
24012;PMS7003;12220;50.194;18.948;2023-03-01T14:08:31;25;18;14
24012;PMS7003;12220;50.194;18.948;2023-03-01T14:10:42;32;27;20
24012;PMS7003;12220;50.194;18.948;2023-03-01T14:17:41;17;16;11
24012;PMS7003;12220;50.194;18.948;2023-03-01T14:19:59;16;15;9
24012;PMS7003;12220;50.194;18.948;2023-03-01T14:24:20;19;16;12
24012;PMS7003;12220;50.194;18.948;2023-03-01T14:26:23;13;13;8
24012;PMS7003;12220;50.194;18.948;2023-03-01T14:28:28;19;13;8
24012;PMS7003;12220;50.194;18.948;2023-03-01T14:30:38;14;14;10
24012;PMS7003;12220;50.194;18.948;2023-03-01T14:32:43;15;14;9
24012;PMS7003;12220;50.194;18.948;2023-03-01T14:34:55;21;19;13
24012;PMS7003;12220;50.194;18.948;2023-03-01T14:37:09;17;16;11
24012;PMS7003;12220;50.194;18.948;2023-03-01T14:41:32;28;22;19
24012;PMS7003;12220;50.194;18.948;2023-03-01T14:43:41;24;24;16
24012;PMS7003;12220;50.194;18.948;2023-03-01T14:45:49;21;20;13
24012;PMS7003;12220;50.194;18.948;2023-03-01T14:47:51;23;22;16
24012;PMS7003;12220;50.194;18.948;2023-03-01T14:49:58;36;30;20
24012;PMS7003;12220;50.194;18.948;2023-03-01T14:52:20;39;34;22
24012;PMS7003;12220;50.194;18.948;2023-03-01T14:58:46;33;30;21
24012;PMS7003;12220;50.194;18.948;2023-03-01T15:00:56;25;23;15
24012;PMS7003;12220;50.194;18.948;2023-03-01T15:03:08;28;27;18
24012;PMS7003;12220;50.194;18.948;2023-03-01T15:05:29;26;23;16
24012;PMS7003;12220;50.194;18.948;2023-03-01T15:07:37;24;19;15
24012;PMS7003;12220;50.194;18.948;2023-03-01T15:09:49;24;24;16
24012;PMS7003;12220;50.194;18.948;2023-03-01T15:11:51;17;15;12
24012;PMS7003;12220;50.194;18.948;2023-03-01T15:13:54;17;14;11
24012;PMS7003;12220;50.194;18.948;2023-03-01T15:18:26;12;12;9
24012;PMS7003;12220;50.194;18.948;2023-03-01T15:20:19;20;20;14
24012;PMS7003;12220;50.194;18.948;2023-03-01T15:22:26;13;13;9
24012;PMS7003;12220;50.194;18.948;2023-03-01T15:24:34;1;0;0
24012;PMS7003;12220;50.194;18.948;2023-03-01T15:26:38;18;13;8
24012;PMS7003;12220;50.194;18.948;2023-03-01T15:28:48;13;11;9
24012;PMS7003;12220;50.194;18.948;2023-03-01T15:30:57;17;9;7
24012;PMS7003;12220;50.194;18.948;2023-03-01T15:37:37;15;13;9
24012;PMS7003;12220;50.194;18.948;2023-03-01T15:39:42;22;15;8
24012;PMS7003;12220;50.194;18.948;2023-03-01T15:41:47;11;10;7
24012;PMS7003;12220;50.194;18.948;2023-03-01T15:43:49;11;10;7
24012;PMS7003;12220;50.194;18.948;2023-03-01T15:45:57;16;14;8
24012;PMS7003;12220;50.194;18.948;2023-03-01T15:48:05;14;13;9
24012;PMS7003;12220;50.194;18.948;2023-03-01T15:52:32;9;9;7
24012;PMS7003;12220;50.194;18.948;2023-03-01T15:54:40;12;10;7
24012;PMS7003;12220;50.194;18.948;2023-03-01T15:56:41;16;14;9
24012;PMS7003;12220;50.194;18.948;2023-03-01T15:58:44;16;11;7
24012;PMS7003;12220;50.194;18.948;2023-03-01T16:00:47;14;13;10